createdAt,value
2019-01-29T00:02:23.047Z,99465.98
2019-01-29T00:05:31.728Z,99472.24
2019-01-29T00:09:23.688Z,99475.39
2019-01-29T00:12:21.157Z,99479.00
2019-01-29T00:20:49.113Z,99471.44
2019-01-29T00:23:37.041Z,99472.91
2019-01-29T00:26:05.842Z,99479.19
2019-01-29T00:28:34.486Z,99482.80
2019-01-29T00:31:03.183Z,99481.48
2019-01-29T00:33:31.949Z,99479.19
2019-01-29T00:36:00.570Z,99480.33
2019-01-29T00:38:29.324Z,99478.17
2019-01-29T00:40:57.941Z,99483.14
2019-01-29T00:43:45.783Z,99489.56
2019-01-29T00:46:14.507Z,99486.92
2019-01-29T00:48:43.177Z,99493.34
2019-01-29T00:51:11.818Z,99502.58
2019-01-29T00:53:40.440Z,99496.33
2019-01-29T00:56:09.127Z,99498.31
2019-01-29T00:58:37.750Z,99501.60
2019-01-29T01:01:06.550Z,99509.34
2019-01-29T01:03:35.263Z,99510.49
2019-01-29T01:06:04.001Z,99517.91
2019-01-29T01:08:32.692Z,99508.69
2019-01-29T01:11:01.432Z,99519.06
2019-01-29T01:13:30.088Z,99520.37
2019-01-29T01:15:58.782Z,99522.70
2019-01-29T01:18:27.444Z,99526.98
2019-01-29T01:20:56.081Z,99523.85
2019-01-29T01:23:24.765Z,99540.33
2019-01-29T01:25:53.514Z,99547.41
2019-01-29T01:28:22.123Z,99549.55
2019-01-29T01:30:50.766Z,99552.37
2019-01-29T01:33:19.391Z,99562.09
2019-01-29T01:35:48.203Z,99561.91
2019-01-29T01:38:16.880Z,99563.07
2019-01-29T01:40:50.173Z,99564.06
2019-01-29T01:43:18.856Z,99562.27
2019-01-29T01:45:47.580Z,99567.69
2019-01-29T01:48:16.252Z,99563.89
2019-01-29T01:50:44.950Z,99570.48
2019-01-29T01:53:13.591Z,99571.32
2019-01-29T01:55:42.199Z,99575.28
2019-01-29T01:58:10.837Z,99579.89
2019-01-29T02:00:39.454Z,99580.55
2019-01-29T02:03:08.178Z,99588.62
2019-01-29T02:05:36.804Z,99583.34
2019-01-29T02:08:05.634Z,99582.82
2019-01-29T02:10:34.369Z,99583.50
2019-01-29T02:13:03.080Z,99578.21
2019-01-29T02:15:31.834Z,99589.09
2019-01-29T02:18:00.516Z,99584.59
2019-01-29T02:20:29.192Z,99583.98
2019-01-29T02:22:57.794Z,99587.28
2019-01-29T02:25:45.618Z,99589.22
2019-01-29T02:28:14.323Z,99597.46
2019-01-29T02:30:42.953Z,99599.45
2019-01-29T02:33:11.606Z,99596.13
2019-01-29T02:35:40.208Z,99591.56
2019-01-29T02:38:08.826Z,99581.84
2019-01-29T02:40:37.536Z,99591.89
2019-01-29T02:43:06.157Z,99596.77
2019-01-29T02:45:34.916Z,99585.80
2019-01-29T02:50:51.562Z,99599.25
2019-01-29T02:53:20.171Z,99597.30
2019-01-29T02:55:48.817Z,99592.55
2019-01-29T02:58:17.429Z,99596.65
2019-01-29T03:00:46.157Z,99593.83
2019-01-29T03:03:14.769Z,99598.60
2019-01-29T03:05:43.486Z,99592.34
2019-01-29T03:08:12.255Z,99596.44
2019-01-29T03:10:40.950Z,99601.86
2019-01-29T03:13:09.589Z,99599.89
2019-01-29T03:15:38.339Z,99597.26
2019-01-29T03:18:07.019Z,99602.66
2019-01-29T03:20:35.705Z,99606.59
2019-01-29T03:23:27.577Z,99600.69
2019-01-29T03:25:53.905Z,99603.95
2019-01-29T03:28:22.517Z,99599.80
2019-01-29T03:30:51.154Z,99606.79
2019-01-29T03:33:19.806Z,99599.98
2019-01-29T03:35:48.495Z,99612.34
2019-01-29T03:38:36.191Z,99612.11
2019-01-29T03:41:04.902Z,99611.67
2019-01-29T03:43:33.491Z,99622.77
2019-01-29T03:46:02.109Z,99629.23
2019-01-29T03:48:30.796Z,99632.70
2019-01-29T03:50:59.425Z,99631.36
2019-01-29T03:53:37.550Z,99635.77
2019-01-29T03:55:58.507Z,99634.45
2019-01-29T03:58:27.225Z,99630.28
2019-01-29T04:00:55.858Z,99631.73
2019-01-29T04:03:24.493Z,99637.66
2019-01-29T04:05:53.223Z,99645.27
2019-01-29T04:08:21.907Z,99635.59
2019-01-29T04:10:50.510Z,99637.41
2019-01-29T04:13:19.125Z,99646.81
2019-01-29T04:15:47.746Z,99652.64
2019-01-29T04:18:56.164Z,99653.77
2019-01-29T04:21:25.971Z,99662.78
2019-01-29T04:23:54.628Z,99663.43
2019-01-29T04:26:23.302Z,99664.97
2019-01-29T04:28:51.918Z,99665.16
2019-01-29T04:31:20.520Z,99669.94
2019-01-29T04:33:49.268Z,99672.22
2019-01-29T04:36:18.033Z,99661.02
2019-01-29T04:38:46.661Z,99663.00
2019-01-29T04:41:15.266Z,99666.66
2019-01-29T04:43:43.891Z,99670.26
2019-01-29T04:46:12.595Z,99670.12
2019-01-29T04:48:41.244Z,99667.28
2019-01-29T04:51:09.916Z,99672.12
2019-01-29T04:53:38.640Z,99675.47
2019-01-29T04:56:07.362Z,99681.77
2019-01-29T04:58:35.987Z,99690.31
2019-01-29T05:01:04.870Z,99687.22
2019-01-29T05:03:33.497Z,99684.77
2019-01-29T05:06:02.116Z,99691.14
2019-01-29T05:08:30.727Z,99687.33
2019-01-29T05:10:59.343Z,99691.48
2019-01-29T05:13:28.008Z,99680.81
2019-01-29T05:15:56.612Z,99686.68
2019-01-29T05:18:25.308Z,99686.29
2019-01-29T05:20:53.967Z,99686.91
2019-01-29T05:23:22.639Z,99683.91
2019-01-29T05:25:51.293Z,99689.98
2019-01-29T05:28:19.982Z,99689.31
2019-01-29T05:30:48.644Z,99685.95
2019-01-29T05:33:17.346Z,99686.47
2019-01-29T05:35:45.976Z,99686.89
2019-01-29T05:38:14.576Z,99690.79
2019-01-29T05:40:43.203Z,99692.24
2019-01-29T05:43:11.822Z,99690.68
2019-01-29T05:45:40.537Z,99692.36
2019-01-29T05:48:09.242Z,99700.41
2019-01-29T05:50:37.972Z,99693.41
2019-01-29T05:53:06.757Z,99695.90
2019-01-29T05:55:35.371Z,99695.17
2019-01-29T05:58:04.046Z,99699.36
2019-01-29T06:03:10.913Z,99691.44
2019-01-29T06:05:39.599Z,99690.41
2019-01-29T06:08:08.198Z,99694.65
2019-01-29T06:10:36.849Z,99695.10
2019-01-29T06:13:05.551Z,99689.33
2019-01-29T06:15:34.250Z,99693.98
2019-01-29T06:18:02.895Z,99688.40
2019-01-29T06:21:11.341Z,99692.66
2019-01-29T06:23:39.952Z,99693.34
2019-01-29T06:26:08.579Z,99703.99
2019-01-29T06:28:37.175Z,99699.21
2019-01-29T06:31:05.901Z,99698.76
2019-01-29T06:33:34.595Z,99700.36
2019-01-29T06:36:03.367Z,99705.17
2019-01-29T06:38:31.954Z,99705.50
2019-01-29T06:41:00.607Z,99703.19
2019-01-29T06:43:29.263Z,99708.06
2019-01-29T06:45:57.878Z,99707.48
2019-01-29T06:48:26.490Z,99713.14
2019-01-29T06:50:55.182Z,99719.17
2019-01-29T06:53:23.858Z,99720.94
2019-01-29T06:55:52.584Z,99723.89
2019-01-29T06:58:21.220Z,99720.59
2019-01-29T07:00:49.838Z,99719.34
2019-01-29T07:03:18.577Z,99725.64
2019-01-29T07:05:47.254Z,99720.77
2019-01-29T07:08:15.826Z,99731.49
2019-01-29T07:10:44.444Z,99729.63
2019-01-29T07:13:13.205Z,99726.92
2019-01-29T07:16:00.799Z,99735.53
2019-01-29T07:19:07.640Z,99744.33
2019-01-29T07:21:36.356Z,99746.91
2019-01-29T07:24:44.772Z,99741.22
2019-01-29T07:27:13.495Z,99738.06
2019-01-29T07:29:42.144Z,99742.81
2019-01-29T07:32:10.905Z,99745.07
2019-01-29T07:34:39.538Z,99745.41
2019-01-29T07:37:08.159Z,99746.08
2019-01-29T07:39:36.874Z,99755.11
2019-01-29T07:42:05.644Z,99750.08
2019-01-29T07:44:34.347Z,99753.83
2019-01-29T07:47:03.082Z,99755.23
2019-01-29T07:49:31.696Z,99754.40
2019-01-29T07:52:00.328Z,99757.23
2019-01-29T07:54:33.370Z,99757.83
2019-01-29T07:56:59.411Z,99763.05
2019-01-29T07:59:33.090Z,99769.08
2019-01-29T08:01:58.361Z,99764.59
2019-01-29T08:04:27.011Z,99762.00
2019-01-29T08:06:55.777Z,99761.36
2019-01-29T08:09:24.548Z,99765.55
2019-01-29T08:11:53.158Z,99763.77
2019-01-29T08:14:21.816Z,99770.33
2019-01-29T08:16:50.475Z,99771.56
2019-01-29T08:19:19.088Z,99772.92
2019-01-29T08:21:47.815Z,99772.35
2019-01-29T08:24:16.528Z,99776.94
2019-01-29T08:26:45.218Z,99773.61
2019-01-29T08:29:13.898Z,99777.47
2019-01-29T08:31:42.552Z,99776.70
2019-01-29T08:34:11.209Z,99775.86
2019-01-29T08:36:39.835Z,99773.20
2019-01-29T08:39:09.171Z,99774.83
2019-01-29T08:41:37.892Z,99775.16
2019-01-29T08:44:06.888Z,99769.38
2019-01-29T08:46:35.497Z,99769.47
2019-01-29T08:49:04.478Z,99771.52
2019-01-29T08:51:36.093Z,99769.72
2019-01-29T08:54:04.951Z,99768.82
2019-01-29T08:56:33.598Z,99768.88
2019-01-29T08:59:02.245Z,99771.25
2019-01-29T09:01:30.862Z,99763.10
2019-01-29T09:03:59.503Z,99766.71
2019-01-29T09:06:28.126Z,99765.25
2019-01-29T09:08:56.751Z,99762.50
2019-01-29T09:11:25.457Z,99761.88
2019-01-29T09:13:54.125Z,99756.95
2019-01-29T09:16:22.824Z,99756.49
2019-01-29T09:18:51.506Z,99759.43
2019-01-29T09:21:20.224Z,99749.81
2019-01-29T09:23:48.839Z,99750.31
2019-01-29T09:26:17.494Z,99738.16
2019-01-29T09:28:46.109Z,99740.98
2019-01-29T09:31:14.934Z,99735.25
2019-01-29T09:33:43.551Z,99738.02
2019-01-29T09:36:12.173Z,99732.11
2019-01-29T09:38:40.782Z,99733.13
2019-01-29T09:41:09.474Z,99732.32
2019-01-29T09:43:38.084Z,99728.70
2019-01-29T09:46:06.775Z,99732.52
2019-01-29T09:48:35.507Z,99729.23
2019-01-29T09:51:04.207Z,99728.92
2019-01-29T09:53:32.907Z,99728.28
2019-01-29T09:56:01.544Z,99732.71
2019-01-29T09:58:30.149Z,99737.63
2019-01-29T10:00:58.785Z,99732.34
2019-01-29T10:03:27.400Z,99730.73
2019-01-29T10:05:56.034Z,99737.16
2019-01-29T10:08:24.744Z,99738.19
2019-01-29T10:10:53.424Z,99732.38
2019-01-29T10:13:22.121Z,99739.62
2019-01-29T10:16:09.953Z,99735.85
2019-01-29T10:18:38.591Z,99739.62
2019-01-29T10:21:07.350Z,99736.02
2019-01-29T10:23:35.983Z,99730.90
2019-01-29T10:26:04.729Z,99730.40
2019-01-29T10:28:33.349Z,99725.64
2019-01-29T10:31:01.953Z,99721.81
2019-01-29T10:33:30.648Z,99718.03
2019-01-29T10:35:59.352Z,99713.89
2019-01-29T10:38:27.984Z,99706.50
2019-01-29T10:40:56.610Z,99703.20
2019-01-29T10:43:25.297Z,99705.01
2019-01-29T10:45:53.959Z,99700.73
2019-01-29T10:48:22.582Z,99696.11
2019-01-29T10:50:51.375Z,99689.99
2019-01-29T10:53:20.084Z,99691.48
2019-01-29T10:55:48.764Z,99686.03
2019-01-29T10:58:17.390Z,99679.08
2019-01-29T11:00:46.078Z,99682.07
2019-01-29T11:08:45.730Z,99661.72
2019-01-29T11:11:14.547Z,99648.55
2019-01-29T11:13:43.184Z,99646.03
2019-01-29T11:16:12.089Z,99646.49
2019-01-29T11:18:40.797Z,99635.43
2019-01-29T11:21:09.488Z,99637.27
2019-01-29T11:23:38.117Z,99631.73
2019-01-29T11:26:06.994Z,99622.38
2019-01-29T11:28:35.659Z,99620.56
2019-01-29T11:31:44.093Z,99622.38
2019-01-29T11:34:12.815Z,99616.73
2019-01-29T11:36:41.567Z,99612.21
2019-01-29T11:42:24.680Z,99601.59
2019-01-29T11:44:53.357Z,99596.86
2019-01-29T11:47:22.031Z,99593.88
2019-01-29T11:49:50.720Z,99594.75
2019-01-29T11:52:19.321Z,99580.08
2019-01-29T11:54:48.051Z,99585.61
2019-01-29T11:57:16.659Z,99582.34
2019-01-29T11:59:45.352Z,99576.30
2019-01-29T12:02:14.175Z,99567.53
2019-01-29T12:04:42.804Z,99576.00
2019-01-29T12:07:11.569Z,99573.00
2019-01-29T12:09:40.190Z,99564.78
2019-01-29T12:12:08.971Z,99569.12
2019-01-29T12:14:37.659Z,99566.73
2019-01-29T12:17:06.386Z,99560.92
2019-01-29T12:19:35.022Z,99555.45
2019-01-29T12:22:03.708Z,99549.09
2019-01-29T12:24:32.350Z,99549.58
2019-01-29T12:27:01.043Z,99539.80
2019-01-29T12:29:29.677Z,99545.36
2019-01-29T12:31:58.356Z,99538.08
2019-01-29T12:34:27.044Z,99535.27
2019-01-29T12:36:55.650Z,99539.15
2019-01-29T12:39:24.273Z,99536.31
2019-01-29T12:41:52.911Z,99532.75
2019-01-29T12:44:21.533Z,99535.08
2019-01-29T12:46:50.273Z,99527.80
2019-01-29T12:49:18.882Z,99525.33
2019-01-29T12:52:06.490Z,99523.33
2019-01-29T12:54:35.096Z,99523.84
2019-01-29T12:57:03.758Z,99518.52
2019-01-29T12:59:32.379Z,99515.92
2019-01-29T13:02:00.975Z,99515.88
2019-01-29T13:04:29.641Z,99512.63
2019-01-29T13:06:58.304Z,99511.07
2019-01-29T13:09:26.989Z,99502.77
2019-01-29T13:11:55.622Z,99492.59
2019-01-29T13:14:24.224Z,99482.64
2019-01-29T13:16:52.832Z,99479.64
2019-01-29T13:19:21.601Z,99486.69
2019-01-29T13:21:50.203Z,99491.13
2019-01-29T13:24:18.851Z,99491.06
2019-01-29T13:26:47.494Z,99484.25
2019-01-29T13:29:16.131Z,99474.28
2019-01-29T13:31:44.780Z,99470.16
2019-01-29T13:34:13.433Z,99472.47
2019-01-29T13:36:42.173Z,99475.36
2019-01-29T13:39:10.877Z,99465.38
2019-01-29T13:41:39.476Z,99463.53
2019-01-29T13:44:08.227Z,99453.91
2019-01-29T13:46:36.835Z,99456.83
2019-01-29T13:49:05.483Z,99448.82
2019-01-29T13:51:34.173Z,99437.87
2019-01-29T13:54:02.785Z,99431.67
2019-01-29T13:56:38.695Z,99433.42
2019-01-29T13:59:01.925Z,99417.91
2019-01-29T14:01:30.654Z,99423.98
2019-01-29T14:04:06.097Z,99420.12
2019-01-29T14:06:29.618Z,99413.64
2019-01-29T14:08:58.245Z,99416.50
2019-01-29T14:11:26.963Z,99418.84
2019-01-29T14:13:55.666Z,99406.23
2019-01-29T14:16:24.282Z,99403.97
2019-01-29T14:18:52.929Z,99399.55
2019-01-29T14:21:40.919Z,99397.80
2019-01-29T14:24:09.591Z,99391.42
2019-01-29T14:26:38.204Z,99385.63
2019-01-29T14:29:06.923Z,99380.42
2019-01-29T14:31:35.617Z,99386.91
2019-01-29T14:34:23.457Z,99380.38
2019-01-29T14:36:52.074Z,99379.69
2019-01-29T14:39:27.685Z,99374.84
2019-01-29T14:41:56.411Z,99366.81
2019-01-29T14:44:31.617Z,99373.12
2019-01-29T14:47:00.340Z,99373.16
2019-01-29T14:49:29.038Z,99367.78
2019-01-29T14:51:57.773Z,99363.95
2019-01-29T14:54:26.569Z,99357.19
2019-01-29T14:56:57.005Z,99358.94
2019-01-29T14:59:25.520Z,99354.63
2019-01-29T15:01:54.271Z,99352.03
2019-01-29T15:04:22.994Z,99354.05
2019-01-29T15:06:51.640Z,99347.53
2019-01-29T15:09:20.263Z,99344.92
2019-01-29T15:11:48.906Z,99346.35
2019-01-29T15:14:17.544Z,99343.41
2019-01-29T15:17:05.146Z,99332.47
2019-01-29T15:22:23.429Z,99339.68
2019-01-29T15:24:52.048Z,99333.65
2019-01-29T15:27:20.709Z,99339.48
2019-01-29T15:32:44.882Z,99337.17
2019-01-29T15:35:13.568Z,99331.88
2019-01-29T15:37:42.210Z,99333.25
2019-01-29T15:40:12.835Z,99327.67
2019-01-29T15:42:41.515Z,99322.01
2019-01-29T15:45:13.894Z,99322.55
2019-01-29T15:47:42.656Z,99317.70
2019-01-29T15:50:13.790Z,99313.89
2019-01-29T15:52:48.469Z,99315.41
2019-01-29T15:55:52.842Z,99307.23
2019-01-29T16:01:27.914Z,99306.09
2019-01-29T16:03:56.608Z,99296.78
2019-01-29T16:06:25.339Z,99293.16
2019-01-29T16:08:54.198Z,99294.48
2019-01-29T16:11:22.860Z,99289.28
2019-01-29T16:13:51.556Z,99287.38
2019-01-29T16:16:20.164Z,99279.30
2019-01-29T16:18:49.023Z,99274.55
2019-01-29T16:21:17.636Z,99271.80
2019-01-29T16:23:46.787Z,99270.23
2019-01-29T16:26:16.280Z,99273.31
2019-01-29T16:28:45.206Z,99267.20
2019-01-29T16:34:23.350Z,99259.83
2019-01-29T16:36:52.188Z,99255.93
2019-01-29T16:39:21.209Z,99259.83
2019-01-29T16:41:51.081Z,99252.44
2019-01-29T16:44:20.326Z,99248.46
2019-01-29T17:00:59.850Z,99217.72
2019-01-29T17:03:28.957Z,99219.65
2019-01-29T17:05:57.726Z,99218.88
2019-01-29T17:08:27.967Z,99218.23
2019-01-29T17:10:59.301Z,99211.46
2019-01-29T17:13:47.152Z,99213.28
2019-01-29T17:19:49.491Z,99212.50
2019-01-29T17:22:18.857Z,99211.41
2019-01-29T17:24:47.739Z,99200.41
2019-01-29T17:30:15.204Z,99195.91
2019-01-29T17:32:44.090Z,99194.14
2019-01-29T17:35:13.838Z,99194.53
2019-01-29T17:41:00.748Z,99182.04
2019-01-29T17:43:29.424Z,99175.17
2019-01-29T17:45:58.032Z,99175.55
2019-01-29T17:48:27.490Z,99166.16
2019-01-29T17:51:15.554Z,99160.64
2019-01-29T17:53:44.489Z,99154.66
2019-01-29T17:56:13.893Z,99150.66
2019-01-29T17:58:42.700Z,99153.63
2019-01-29T18:01:12.649Z,99140.49
2019-01-29T18:06:41.502Z,99133.68
2019-01-29T18:09:11.354Z,99125.86
2019-01-29T18:11:40.572Z,99122.19
2019-01-29T18:14:29.539Z,99111.56
2019-01-29T18:20:03.931Z,99104.31
2019-01-29T18:22:51.859Z,99100.61
2019-01-29T18:25:21.331Z,99098.44
2019-01-29T18:28:00.606Z,99096.16
2019-01-29T18:37:26.011Z,99075.83
2019-01-29T18:40:13.810Z,99070.87
2019-01-29T18:43:01.778Z,99064.52
2019-01-29T18:45:31.097Z,99064.23
2019-01-29T18:48:19.248Z,99060.67
2019-01-29T18:50:48.143Z,99055.95
2019-01-29T18:59:17.627Z,99044.80
2019-01-29T19:02:07.160Z,99042.59
2019-01-29T19:04:36.051Z,99040.70
2019-01-29T19:07:08.375Z,99036.09
2019-01-29T19:09:56.387Z,99030.91
2019-01-29T19:12:26.238Z,99025.55
2019-01-29T19:14:55.212Z,99029.53
2019-01-29T19:17:26.171Z,99023.46
2019-01-29T19:19:55.198Z,99028.80
2019-01-29T19:22:24.175Z,99022.47
2019-01-29T19:24:53.081Z,99024.64
2019-01-29T19:36:10.390Z,99011.35
2019-01-29T19:45:42.569Z,98996.67
2019-01-29T19:48:11.450Z,98994.48
2019-01-29T19:50:40.554Z,98988.55
2019-01-29T19:53:30.815Z,98991.27
2019-01-29T19:58:42.798Z,98978.95
2019-01-29T20:01:11.698Z,98972.27
2019-01-29T20:03:41.583Z,98972.30
2019-01-29T20:06:12.166Z,98977.84
2019-01-29T20:12:01.390Z,98966.95
2019-01-29T20:14:52.604Z,98962.08
2019-01-29T20:17:22.008Z,98957.31
2019-01-29T20:19:50.917Z,98955.99
2019-01-29T20:22:19.680Z,98945.02
2019-01-29T20:24:48.460Z,98948.79
2019-01-29T20:27:17.399Z,98947.63
2019-01-29T20:29:46.397Z,98948.52
2019-01-29T20:32:15.126Z,98942.55
2019-01-29T20:34:44.116Z,98936.53
2019-01-29T20:43:12.926Z,98930.88
2019-01-29T20:45:42.032Z,98931.23
2019-01-29T20:51:34.898Z,98922.18
2019-01-29T20:54:23.154Z,98936.06
2019-01-29T20:56:56.220Z,98918.23
2019-01-29T20:59:25.067Z,98924.59
2019-01-29T21:01:54.024Z,98917.55
2019-01-29T21:04:23.290Z,98912.26
2019-01-29T21:06:55.919Z,98918.59
2019-01-29T21:09:24.821Z,98910.20
2019-01-29T21:17:28.774Z,98909.73
2019-01-29T21:19:57.827Z,98906.63
2019-01-29T21:22:26.642Z,98906.80
2019-01-29T21:24:56.256Z,98896.61
2019-01-29T21:30:01.650Z,98894.61
2019-01-29T21:35:10.854Z,98867.76
2019-01-29T21:37:40.144Z,98869.98
2019-01-29T21:40:10.434Z,98866.39
2019-01-29T21:42:39.258Z,98857.61
2019-01-29T21:51:01.208Z,98850.98
2019-01-29T21:53:30.006Z,98846.53
2019-01-29T21:55:59.186Z,98843.53
2019-01-29T22:01:04.004Z,98835.63
2019-01-29T22:03:32.798Z,98833.77
2019-01-29T22:06:01.674Z,98831.68
2019-01-29T22:08:57.886Z,98828.02
2019-01-29T22:11:45.823Z,98829.05
2019-01-29T22:14:14.933Z,98822.05
2019-01-29T22:17:04.887Z,98811.87
2019-01-29T22:19:36.466Z,98813.47
2019-01-29T22:22:06.156Z,98815.34
2019-01-29T22:24:34.875Z,98804.13
2019-01-29T22:27:03.861Z,98799.87
2019-01-29T22:29:51.945Z,98806.05
2019-01-29T22:32:20.765Z,98810.43
2019-01-29T22:38:27.007Z,98790.68
2019-01-29T22:43:44.525Z,98783.57
2019-01-29T22:49:41.206Z,98772.27
2019-01-29T22:52:10.014Z,98766.52
2019-01-29T22:55:21.201Z,98761.83
2019-01-29T22:58:11.496Z,98753.72
2019-01-29T23:01:07.909Z,98746.07
2019-01-29T23:03:39.873Z,98739.70
2019-01-29T23:06:17.404Z,98732.21
2019-01-29T23:14:30.191Z,98726.35
2019-01-29T23:16:58.793Z,98727.92
2019-01-29T23:19:27.480Z,98723.67
2019-01-29T23:21:56.174Z,98720.48
2019-01-29T23:24:24.819Z,98717.09
2019-01-29T23:26:53.519Z,98717.78
2019-01-29T23:29:22.281Z,98703.70
2019-01-29T23:31:50.940Z,98704.38
2019-01-29T23:34:19.553Z,98697.80
2019-01-29T23:36:48.164Z,98685.77
2019-01-29T23:39:16.788Z,98683.82
2019-01-29T23:41:45.442Z,98676.86
2019-01-29T23:44:14.091Z,98674.64
2019-01-29T23:46:42.788Z,98668.80
2019-01-29T23:49:11.452Z,98665.39
2019-01-29T23:51:40.076Z,98663.09
2019-01-29T23:54:08.936Z,98650.34
2019-01-29T23:56:37.563Z,98648.44
2019-01-29T23:59:06.304Z,98646.03
